CheckWX is a tool to help pilots better visualize weather data.  It is not intended as a substitute for an official pre-flight weather briefing.

06:05:00 UTC

EGSS METAR
London Stansted Airport
London, United Kingdom
Current

15 mins ago

EGSS 310550Z AUTO 36006KT 9999 NCD 02/00 Q1032
Observed
Mar-31 @ 05:50 UTC
Wind
  • 360° at 6 KTS
Visibility
10,000+ meters
Flight Rules
VFR
Cloud Levels
  • Clear skies
Temperature
C / 36°F
Dewpoint
C / 32°F
Humidity
87%
Altimeter
30.47" Hg
Pressure
1031.92 hPa
Previous

45 mins ago

EGSS 310520Z AUTO 36007KT 9999 NCD 02/00 Q1031
Observed
Mar-31 @ 05:20 UTC
Wind
  • 360° at 7 KTS
Visibility
10,000+ meters
Flight Rules
VFR
Cloud Levels
  • Clear skies
Temperature
C / 36°F
Dewpoint
C / 32°F
Humidity
87%
Altimeter
30.44" Hg
Pressure
1030.92 hPa
Previous

1 hour ago

EGSS 310450Z AUTO 01007KT 9999 NCD 02/00 Q1031
Observed
Mar-31 @ 04:50 UTC
Wind
  • 010° at 7 KTS
Visibility
10,000+ meters
Flight Rules
VFR
Cloud Levels
  • Clear skies
Temperature
C / 36°F
Dewpoint
C / 32°F
Humidity
87%
Altimeter
30.44" Hg
Pressure
1030.92 hPa